Terminal Aerodrome Forecast
Issued by NWS Newport/Morehead City, NC

Home | Current Version | Previous Version | Text Only | Print | Product List | Glossary On
Versions: 1 2 3 4 5 6 7 8 9 10 11 12 13 14
000
FTUS42 KMHX 090541
TAFEWN
TAF
KEWN 090541Z 0906/1006 26003KT P6SM OVC110
     FM090800 26004KT 5SM BR SCT100
      TEMPO 0908/0910 2SM BR
     FM091400 26012G21KT P6SM BKN050=

USA.gov is the U.S. government's official web portal to all federal, state and local government web resources and services.